Time;durP1;ratioP1;P1;durP2;ratioP2;P2;SDS_P1;SDS_P2;PMS_P1;PMS_P2;Temp;Humidity;BMP_temperature;BMP_pressure;BME280_temperature;BME280_humidity;BME280_pressure;Samples;Min_cycle;Max_cycle;Signal;HPM_P1;HPM_P2
2023/01/13 00:00:23;;;;;;;8.82;5.35;;;;;;;7.78;54.86;99178.56;5108558;28;20048;-72
2023/01/13 00:02:50;;;;;;;7.93;5.20;;;;;;;7.77;55.03;99179.50;5108954;28;20103;-72
2023/01/13 00:05:17;;;;;;;7.20;5.38;;;;;;;7.78;54.98;99177.72;5109004;28;20039;-70
2023/01/13 00:07:47;;;;;;;7.15;4.90;;;;;;;7.78;55.01;99170.66;5108449;28;20044;-71
2023/01/13 00:10:14;;;;;;;7.97;5.47;;;;;;;7.76;54.92;99175.16;5107438;28;20047;-71
2023/01/13 00:12:41;;;;;;;8.02;5.57;;;;;;;7.56;55.07;99143.56;5108601;28;20050;-70
2023/01/13 00:15:08;;;;;;;7.53;4.90;;;;;;;7.74;55.05;99170.88;5108213;28;20225;-71
2023/01/13 00:17:35;;;;;;;6.10;4.63;;;;;;;7.24;54.93;99077.31;5108155;28;20115;-71
2023/01/13 00:20:02;;;;;;;7.38;5.10;;;;;;;7.73;55.00;99158.59;5108682;28;20044;-72
2023/01/13 00:22:29;;;;;;;6.82;5.10;;;;;;;7.72;55.08;99152.47;5107401;28;20195;-72
2023/01/13 00:25:00;;;;;;;7.32;5.03;;;;;;;7.69;55.41;99149.97;5107303;28;20040;-71
2023/01/13 00:27:27;;;;;;;9.40;5.28;;;;;;;7.66;55.08;99148.34;5108105;28;20032;-71
2023/01/13 00:29:54;;;;;;;6.70;4.95;;;;;;;7.67;55.20;99151.84;5108603;28;20119;-71
2023/01/13 00:32:20;;;;;;;7.90;5.90;;;;;;;7.68;55.34;99150.91;5108248;28;20064;-71
2023/01/13 00:34:47;;;;;;;9.98;6.25;;;;;;;7.65;55.35;99159.81;5108419;28;20040;-71
2023/01/13 00:37:14;;;;;;;9.60;6.00;;;;;;;7.36;55.46;99102.28;5107142;28;20051;-71
2023/01/13 00:39:41;;;;;;;10.38;6.95;;;;;;;7.61;55.60;99149.47;5108129;28;20035;-70
2023/01/13 00:44:53;;;;;;;8.98;6.85;;;;;;;7.47;56.26;99155.38;5107686;28;20055;-71
2023/01/13 00:47:20;;;;;;;11.60;7.55;;;;;;;7.45;56.33;99149.34;5107215;28;20337;-70
2023/01/13 00:49:47;;;;;;;10.82;7.55;;;;;;;7.47;56.44;99150.13;5106542;28;20036;-71
2023/01/13 00:52:14;;;;;;;9.50;6.43;;;;;;;7.49;56.34;99155.31;5106784;28;20218;-70
2023/01/13 00:54:41;;;;;;;11.15;7.82;;;;;;;7.49;56.37;99161.44;5108067;28;20036;-71
2023/01/13 00:57:09;;;;;;;12.85;8.15;;;;;;;7.50;56.39;99149.97;5108083;28;20050;-70
2023/01/13 00:59:35;;;;;;;9.63;6.90;;;;;;;7.51;56.47;99145.56;5107653;28;20254;-70
2023/01/13 01:02:02;;;;;;;9.60;6.90;;;;;;;6.79;56.65;99045.97;5106454;28;20275;-70
2023/01/13 01:04:29;;;;;;;11.68;7.47;;;;;;;7.41;56.73;99141.63;5106434;28;20038;-70
2023/01/13 01:06:56;;;;;;;8.82;6.43;;;;;;;7.39;56.78;99152.25;5107307;28;20052;-71
2023/01/13 01:09:22;;;;;;;12.00;8.85;;;;;;;7.37;56.94;99144.41;5107196;28;20042;-71
2023/01/13 01:11:49;;;;;;;9.90;8.25;;;;;;;7.36;56.77;99136.56;5107461;28;20202;-70
2023/01/13 01:14:17;;;;;;;11.15;8.02;;;;;;;7.36;56.82;99131.28;5106322;28;20043;-71
2023/01/13 01:16:45;;;;;;;9.43;7.07;;;;;;;7.33;56.95;99128.78;5106800;28;20115;-71
2023/01/13 01:19:12;;;;;;;10.13;6.95;;;;;;;7.32;56.96;99125.28;5107138;28;20039;-71
2023/01/13 01:21:39;;;;;;;10.32;7.43;;;;;;;7.30;57.03;99118.34;5106935;28;20238;-71
2023/01/13 01:24:06;;;;;;;10.38;7.88;;;;;;;7.29;57.12;99122.78;5106960;28;20097;-71
2023/01/13 01:26:33;;;;;;;11.73;7.10;;;;;;;6.26;56.78;98954.44;5107185;28;20111;-71
2023/01/13 01:29:01;;;;;;;10.30;7.43;;;;;;;6.47;56.99;99001.78;5107154;28;20058;-70
2023/01/13 01:31:31;;;;;;;11.85;7.72;;;;;;;7.07;57.37;99096.53;5106751;28;20051;-70
2023/01/13 01:33:59;;;;;;;9.43;7.50;;;;;;;7.16;57.26;99124.25;5107008;28;20047;-71
2023/01/13 01:36:28;;;;;;;12.52;8.50;;;;;;;7.10;57.64;99150.88;5106982;28;20148;-71
2023/01/13 01:38:56;;;;;;;9.63;7.30;;;;;;;7.06;57.61;99121.19;5107277;28;20318;-70
2023/01/13 01:41:26;;;;;;;11.98;6.70;;;;;;;-0.13;57.15;98598.31;5106615;28;20039;-71
2023/01/13 01:44:01;;;;;;;9.95;7.30;;;;;;;6.89;57.46;99084.19;5106334;28;20044;-71
2023/01/13 01:46:31;;;;;;;9.23;6.78;;;;;;;6.79;57.63;99082.00;5106510;28;20040;-70
2023/01/13 01:49:09;;;;;;;9.27;6.80;;;;;;;7.02;57.76;99110.84;5105559;28;20040;-72
2023/01/13 01:51:39;;;;;;;9.82;6.47;;;;;;;1.92;57.12;98250.25;5105557;28;20028;-72
2023/01/13 01:54:11;;;;;;;9.48;6.60;;;;;;;6.96;57.57;99105.84;5105529;28;20109;-71
2023/01/13 01:56:41;;;;;;;7.32;5.72;;;;;;;7.01;57.36;99098.59;5106607;28;20040;-71
2023/01/13 01:59:08;;;;;;;9.35;5.88;;;;;;;7.00;57.19;99104.78;5106331;28;20058;-71
2023/01/13 02:01:38;;;;;;;8.48;5.88;;;;;;;7.00;57.23;99091.59;5106159;28;20040;-72
2023/01/13 02:04:11;;;;;;;8.05;5.90;;;;;;;6.97;57.40;99097.88;5106158;28;20051;-70
2023/01/13 02:06:38;;;;;;;12.23;6.50;;;;;;;6.73;57.25;99052.38;5106185;28;20071;-71
2023/01/13 02:09:05;;;;;;;7.80;6.28;;;;;;;6.12;57.22;98954.16;5106143;28;20039;-70
2023/01/13 02:14:20;;;;;;;8.98;6.13;;;;;;;7.02;57.26;99095.03;5105250;28;20278;-73
2023/01/13 02:17:00;;;;;;;11.10;6.55;;;;;;;7.01;57.72;99088.06;5106565;28;20031;-71
2023/01/13 02:20:01;;;;;;;8.95;5.57;;;;;;;6.99;57.78;99080.22;5105119;28;20044;-71
2023/01/13 02:22:45;;;;;;;7.88;6.03;;;;;;;6.60;57.48;99006.44;5105931;28;20032;-73
2023/01/13 02:25:33;;;;;;;7.93;5.00;;;;;;;7.00;57.48;99078.44;5105484;28;20078;-73
2023/01/13 02:28:27;;;;;;;7.85;5.05;;;;;;;6.99;57.70;99082.84;5105038;28;20473;-73
2023/01/13 02:34:01;;;;;;;7.47;5.53;;;;;;;6.98;57.66;99075.00;5095140;28;20075;-73
2023/01/13 02:36:37;;;;;;;8.85;4.90;;;;;;;6.97;57.49;99071.53;5106227;28;20040;-74
2023/01/13 02:39:10;;;;;;;7.25;5.10;;;;;;;6.97;57.58;99061.00;5106202;28;20051;-74
2023/01/13 02:44:47;;;;;;;10.05;5.65;;;;;;;6.97;57.98;99065.41;5105696;28;20257;-74
2023/01/13 02:47:18;;;;;;;7.38;5.45;;;;;;;6.65;57.71;99007.09;5105127;28;20068;-74
2023/01/13 02:49:49;;;;;;;10.63;5.57;;;;;;;6.95;57.80;99068.09;5104822;28;20291;-73
2023/01/13 02:52:22;;;;;;;8.30;5.10;;;;;;;6.92;57.83;99064.75;5104758;28;20040;-72
2023/01/13 02:54:55;;;;;;;9.40;5.65;;;;;;;6.89;58.15;99060.47;5105878;28;20040;-71
2023/01/13 02:57:24;;;;;;;7.38;5.00;;;;;;;5.96;58.13;98934.72;5105524;28;20048;-70
2023/01/13 02:59:54;;;;;;;6.60;5.45;;;;;;;6.85;57.98;99050.16;5105235;28;20082;-72
2023/01/13 03:02:24;;;;;;;6.22;4.63;;;;;;;6.84;58.32;99048.44;5106003;28;20040;-74
2023/01/13 03:04:54;;;;;;;7.22;5.30;;;;;;;5.71;58.28;98859.50;5105448;28;20040;-72
2023/01/13 03:07:54;;;;;;;6.30;4.40;;;;;;;6.78;58.93;99049.53;5088005;28;20047;-72
2023/01/13 03:10:37;;;;;;;7.85;4.55;;;;;;;6.74;59.09;99055.84;5100722;28;20073;-71
2023/01/13 03:13:24;;;;;;;6.15;4.00;;;;;;;6.72;59.23;99053.28;5108600;28;20046;-70
2023/01/13 03:15:59;;;;;;;10.70;6.50;;;;;;;6.72;59.02;99071.72;5109712;28;20052;-71
2023/01/13 03:18:40;;;;;;;9.93;5.85;;;;;;;6.48;58.91;99001.72;5108611;28;20046;-71
2023/01/13 03:21:14;;;;;;;8.93;5.78;;;;;;;6.81;58.45;99056.47;5108503;28;20040;-71
2023/01/13 03:23:50;;;;;;;6.22;4.32;;;;;;;6.79;58.79;99055.66;5109856;28;20059;-71
2023/01/13 03:26:24;;;;;;;8.65;5.10;;;;;;;6.72;58.91;99048.03;5109842;28;20115;-71
2023/01/13 03:28:56;;;;;;;5.97;4.47;;;;;;;6.70;59.07;99049.00;5109340;28;20044;-71
2023/01/13 03:31:30;;;;;;;6.80;4.72;;;;;;;6.66;59.19;99044.81;5109330;28;20044;-71
2023/01/13 03:34:03;;;;;;;8.07;6.10;;;;;;;6.31;59.32;98991.06;5109249;28;20046;-71
2023/01/13 03:36:32;;;;;;;9.90;5.15;;;;;;;6.64;59.20;99042.25;5108252;28;20048;-71
2023/01/13 03:39:03;;;;;;;6.18;4.75;;;;;;;4.32;59.31;98666.66;5109094;28;20291;-71
2023/01/13 03:41:36;;;;;;;6.40;4.57;;;;;;;6.54;59.82;99063.78;5108816;28;20044;-71
2023/01/13 03:44:23;;;;;;;8.73;4.85;;;;;;;6.54;59.62;99045.34;5108683;28;20036;-70
2023/01/13 03:46:58;;;;;;;5.75;4.07;;;;;;;6.49;59.69;99045.53;5108773;28;20052;-71
2023/01/13 03:49:32;;;;;;;6.38;4.15;;;;;;;6.47;59.88;99044.75;5108831;28;20077;-71
2023/01/13 03:52:05;;;;;;;9.88;4.68;;;;;;;6.42;60.00;99039.69;5107899;28;20050;-71
2023/01/13 03:54:36;;;;;;;7.20;4.32;;;;;;;6.43;59.73;99051.06;5109198;28;20276;-71
2023/01/13 03:57:09;;;;;;;6.68;4.35;;;;;;;6.12;59.82;98985.75;5109094;28;20062;-71
2023/01/13 03:59:41;;;;;;;6.47;3.85;;;;;;;6.40;59.70;99040.69;5107890;28;20040;-72
2023/01/13 04:02:12;;;;;;;5.55;3.60;;;;;;;6.38;59.87;99037.25;5107722;28;20046;-72
2023/01/13 04:04:44;;;;;;;5.75;4.10;;;;;;;6.16;59.93;99004.88;5108987;28;20055;-71
2023/01/13 04:07:18;;;;;;;6.30;4.20;;;;;;;5.83;60.06;98951.94;5108953;28;20058;-71
2023/01/13 04:09:50;;;;;;;6.67;3.63;;;;;;;5.59;59.99;98911.75;5107567;28;20097;-70
2023/01/13 04:12:23;;;;;;;7.13;3.85;;;;;;;6.34;59.82;99033.03;5108910;28;20058;-70
2023/01/13 04:14:50;;;;;;;7.07;4.72;;;;;;;6.14;59.71;99002.31;5108603;28;20188;-70
2023/01/13 04:17:18;;;;;;;6.65;4.72;;;;;;;6.38;59.73;99032.00;5107398;28;20043;-70
2023/01/13 04:19:46;;;;;;;8.15;5.05;;;;;;;6.35;59.75;99037.38;5108518;28;20040;-70
2023/01/13 04:22:13;;;;;;;7.75;5.28;;;;;;;6.36;59.77;99039.09;5107253;28;20036;-71
2023/01/13 04:24:40;;;;;;;6.07;4.93;;;;;;;6.00;59.78;98973.97;5107872;28;20262;-71
2023/01/13 04:27:07;;;;;;;8.48;4.85;;;;;;;6.34;59.89;99030.41;5107538;28;20036;-71
2023/01/13 04:29:33;;;;;;;8.20;4.78;;;;;;;6.37;59.77;99030.28;5091615;28;20210;-72
2023/01/13 04:32:00;;;;;;;5.75;4.22;;;;;;;6.41;59.72;99039.75;5107208;28;20321;-72
2023/01/13 04:34:27;;;;;;;4.90;4.07;;;;;;;6.40;59.73;99036.28;5107966;28;20047;-72
2023/01/13 04:36:55;;;;;;;6.60;3.92;;;;;;;6.43;59.56;99032.66;5108458;28;20103;-71
2023/01/13 04:39:22;;;;;;;4.43;3.70;;;;;;;6.43;59.52;99037.91;5107324;28;20044;-71
2023/01/13 04:41:57;;;;;;;5.72;4.25;;;;;;;5.94;59.38;98971.59;5107299;28;20082;-72
2023/01/13 04:44:24;;;;;;;6.07;3.72;;;;;;;6.42;59.28;99028.31;5107489;28;20055;-73
2023/01/13 04:46:51;;;;;;;5.55;3.72;;;;;;;6.39;59.23;99024.03;5107982;28;20048;-73
2023/01/13 04:49:18;;;;;;;5.55;3.70;;;;;;;6.37;59.46;99025.00;5108196;28;20039;-73
2023/01/13 04:51:44;;;;;;;6.65;3.90;;;;;;;6.36;59.46;99018.91;5107618;28;20058;-73
2023/01/13 04:54:13;;;;;;;6.00;4.13;;;;;;;6.09;59.57;98977.97;5107828;28;20047;-73
2023/01/13 04:56:39;;;;;;;5.28;3.97;;;;;;;6.34;59.66;99019.88;5108135;28;20051;-73
2023/01/13 04:59:06;;;;;;;8.18;4.20;;;;;;;6.34;59.59;99031.28;5108035;28;20052;-73
2023/01/13 05:01:33;;;;;;;7.30;5.25;;;;;;;6.34;59.58;99025.16;5107729;28;20048;-72
2023/01/13 05:04:00;;;;;;;8.52;5.50;;;;;;;6.29;59.68;99029.75;5107270;28;20036;-72
2023/01/13 05:06:27;;;;;;;7.60;5.25;;;;;;;6.27;59.81;99024.56;5107591;28;20321;-72
2023/01/13 05:08:54;;;;;;;8.80;5.47;;;;;;;6.26;59.77;99028.13;5106672;28;20111;-72
2023/01/13 05:17:02;;;;;;;7.45;5.00;;;;;;;1.47;59.41;98223.13;5107420;28;20062;-72
2023/01/13 05:19:30;;;;;;;7.85;4.75;;;;;;;6.25;59.57;99023.78;5107556;28;20119;-72
2023/01/13 05:27:28;;;;;;;8.32;5.97;;;;;;;6.23;59.64;99024.75;5106053;28;20044;-72
2023/01/13 05:29:55;;;;;;;9.68;6.82;;;;;;;4.81;59.59;98788.84;5105970;28;20040;-72
2023/01/13 05:32:23;;;;;;;7.75;5.70;;;;;;;5.24;59.79;98882.53;5107313;28;20040;-72
2023/01/13 05:34:50;;;;;;;9.73;5.47;;;;;;;6.17;59.74;99010.09;5105304;28;20040;-72
2023/01/13 05:37:17;;;;;;;9.02;6.22;;;;;;;4.97;59.50;98833.75;5106799;28;20044;-72
2023/01/13 05:45:14;;;;;;;8.93;6.18;;;;;;;6.05;59.80;99019.34;5106388;28;20064;-72
2023/01/13 05:47:40;;;;;;;7.90;6.15;;;;;;;5.97;59.78;99010.94;5106477;28;20311;-72
2023/01/13 05:50:08;;;;;;;10.55;6.95;;;;;;;1.13;59.52;98193.91;5106711;28;20055;-72
2023/01/13 05:52:35;;;;;;;9.63;6.50;;;;;;;6.07;59.85;99029.81;5105616;28;20036;-72
2023/01/13 05:55:02;;;;;;;10.27;5.93;;;;;;;6.06;59.98;99025.47;5106200;28;20072;-72
2023/01/13 05:57:30;;;;;;;9.30;6.57;;;;;;;6.04;60.10;99025.53;5106608;28;20093;-72
2023/01/13 05:59:57;;;;;;;13.00;7.85;;;;;;;5.99;60.38;99018.75;5106594;28;20040;-72
2023/01/13 06:02:25;;;;;;;15.73;8.80;;;;;;;5.92;60.51;99020.78;5106019;28;20056;-72
2023/01/13 06:04:52;;;;;;;9.60;7.05;;;;;;;5.85;60.65;99016.69;5106498;28;20045;-72
2023/01/13 06:07:19;;;;;;;11.73;6.97;;;;;;;5.76;60.91;99022.34;5106431;28;20054;-72
2023/01/13 06:09:45;;;;;;;10.05;6.10;;;;;;;5.70;60.77;99020.81;5105272;28;20036;-72
2023/01/13 06:12:13;;;;;;;8.98;6.32;;;;;;;5.69;60.87;99019.09;5105274;28;20119;-72
2023/01/13 06:14:41;;;;;;;8.00;5.40;;;;;;;5.40;60.96;98985.25;5106282;28;20038;-72
2023/01/13 06:17:09;;;;;;;10.90;6.28;;;;;;;5.60;60.91;99022.09;5105464;28;20303;-72
2023/01/13 06:19:36;;;;;;;10.82;6.07;;;;;;;5.60;60.90;99026.50;5105145;28;20032;-72
2023/01/13 06:22:10;;;;;;;7.82;5.63;;;;;;;4.08;61.02;98766.34;5106420;28;20065;-72
2023/01/13 06:24:37;;;;;;;6.75;4.80;;;;;;;5.65;60.61;99037.69;5106349;28;20050;-72
2023/01/13 06:27:05;;;;;;;18.15;5.97;;;;;;;5.65;60.45;99030.66;5106494;28;20115;-72
2023/01/13 06:29:32;;;;;;;11.27;6.10;;;;;;;5.68;60.35;99035.78;5105830;28;20282;-71
2023/01/13 06:32:03;;;;;;;8.15;5.30;;;;;;;5.36;60.41;98975.78;5105613;28;20051;-72
2023/01/13 06:34:30;;;;;;;8.82;6.38;;;;;;;4.61;60.22;98843.91;5105058;28;20074;-72
2023/01/13 06:36:57;;;;;;;9.73;6.13;;;;;;;5.68;60.35;99030.53;5105481;28;20308;-72
2023/01/13 06:39:29;;;;;;;7.80;5.50;;;;;;;5.43;60.66;99001.75;5106071;28;20054;-72
2023/01/13 06:44:41;;;;;;;9.52;6.55;;;;;;;5.60;60.69;99037.88;5104433;28;20067;-72
2023/01/13 06:47:10;;;;;;;7.63;5.82;;;;;;;5.61;60.69;99026.44;5105865;28;20057;-72
2023/01/13 06:49:36;;;;;;;8.50;5.80;;;;;;;5.64;60.58;99033.34;5104744;28;20040;-72
2023/01/13 06:52:03;;;;;;;7.70;6.07;;;;;;;5.62;60.70;99029.94;5106144;28;20048;-72
2023/01/13 06:54:30;;;;;;;8.63;6.60;;;;;;;5.63;60.63;99039.53;5106073;28;20036;-72
2023/01/13 06:56:57;;;;;;;11.07;6.45;;;;;;;5.64;60.65;99035.97;5105805;28;20047;-72
2023/01/13 06:59:24;;;;;;;9.27;5.97;;;;;;;5.60;60.87;99029.13;5104607;28;20365;-72
2023/01/13 07:01:51;;;;;;;7.55;6.22;;;;;;;5.62;60.86;99032.56;5105427;28;20085;-72
2023/01/13 07:04:19;;;;;;;8.68;6.60;;;;;;;5.62;60.62;99064.97;5105123;28;20044;-72
2023/01/13 07:06:46;;;;;;;11.52;6.30;;;;;;;5.59;61.01;99044.06;5106248;28;20062;-72
2023/01/13 07:09:13;;;;;;;10.57;6.65;;;;;;;5.61;60.95;99042.22;5105845;28;20314;-72
2023/01/13 07:11:40;;;;;;;8.13;5.90;;;;;;;5.62;61.09;99038.66;5105216;28;20042;-72
2023/01/13 07:16:52;;;;;;;7.00;5.93;;;;;;;5.52;61.35;99042.59;5105452;28;20130;-72
2023/01/13 07:19:22;;;;;;;8.55;6.30;;;;;;;5.47;61.82;99035.78;5105678;28;20048;-72
2023/01/13 07:21:50;;;;;;;9.30;6.45;;;;;;;5.47;61.61;99041.06;5105417;28;20047;-70
2023/01/13 07:24:16;;;;;;;10.32;6.43;;;;;;;3.60;61.48;98715.75;5105299;28;20303;-71
2023/01/13 07:26:43;;;;;;;8.05;6.22;;;;;;;5.51;61.62;99037.38;5105218;28;20044;-72
2023/01/13 07:29:10;;;;;;;8.70;5.90;;;;;;;5.48;61.61;99041.00;5105088;28;20056;-72
2023/01/13 07:31:37;;;;;;;9.23;6.30;;;;;;;5.50;61.67;99039.16;5104901;28;20315;-72
2023/01/13 07:34:04;;;;;;;9.48;6.63;;;;;;;5.50;61.70;99044.41;5104208;28;20036;-71
2023/01/13 07:36:33;;;;;;;10.07;6.72;;;;;;;5.48;61.84;99030.47;5105194;28;20313;-72
2023/01/13 07:38:59;;;;;;;9.35;7.55;;;;;;;5.47;61.91;99035.78;5104475;28;20032;-72
2023/01/13 07:44:10;;;;;;;11.40;7.25;;;;;;;5.47;61.92;99031.41;5104904;28;20083;-72
2023/01/13 07:46:38;;;;;;;9.70;6.50;;;;;;;5.51;61.99;99029.50;5087595;28;20048;-72
2023/01/13 07:49:05;;;;;;;10.32;7.40;;;;;;;5.57;61.89;99022.22;5104790;28;20040;-72
2023/01/13 07:51:35;;;;;;;10.23;6.65;;;;;;;5.61;61.95;99018.56;5104918;28;20036;-72
2023/01/13 07:54:02;;;;;;;9.38;7.15;;;;;;;5.41;61.51;98998.31;5104833;28;20055;-72
2023/01/13 07:56:29;;;;;;;9.15;7.72;;;;;;;5.40;61.67;98988.72;5104075;28;20031;-72
2023/01/13 07:58:56;;;;;;;8.75;6.28;;;;;;;5.68;61.52;99024.41;5105311;28;20051;-72
2023/01/13 08:01:23;;;;;;;9.48;6.90;;;;;;;5.69;61.53;99034.03;5108183;28;20101;-71
2023/01/13 08:03:49;;;;;;;11.38;7.30;;;;;;;5.68;61.52;99035.78;5108911;28;20040;-72
2023/01/13 08:06:16;;;;;;;10.00;7.07;;;;;;;5.68;61.43;99048.09;5108922;28;20036;-72
2023/01/13 08:08:45;;;;;;;9.07;6.93;;;;;;;5.72;61.48;99049.69;5108879;28;20044;-72
2023/01/13 08:11:11;;;;;;;8.68;6.95;;;;;;;5.74;61.34;99046.06;5107415;28;20040;-72
2023/01/13 08:13:38;;;;;;;10.27;6.78;;;;;;;5.73;61.18;99046.97;5107754;28;20314;-72
2023/01/13 08:16:07;;;;;;;11.10;6.65;;;;;;;5.73;61.41;99048.75;5107146;28;20187;-72
2023/01/13 08:18:35;;;;;;;10.02;7.00;;;;;;;5.18;61.20;98956.34;5108525;28;20040;-71
2023/01/13 08:21:04;;;;;;;8.73;6.00;;;;;;;5.77;61.10;99052.97;5107385;28;20200;-72
2023/01/13 08:23:30;;;;;;;10.02;6.28;;;;;;;5.50;61.28;99020.75;5107975;28;20040;-71
2023/01/13 08:26:02;;;;;;;9.98;6.72;;;;;;;5.72;61.32;99063.69;5107661;28;20102;-71
2023/01/13 08:28:29;;;;;;;7.25;6.00;;;;;;;5.76;61.02;99065.25;5108208;28;20173;-71
2023/01/13 08:30:59;;;;;;;8.43;6.90;;;;;;;4.57;61.00;98853.69;5108507;28;20251;-72
2023/01/13 08:33:26;;;;;;;8.32;6.25;;;;;;;5.82;61.03;99056.28;5107051;28;20215;-72
2023/01/13 08:35:53;;;;;;;10.02;7.70;;;;;;;5.82;60.82;99071.19;5108198;28;20160;-71
2023/01/13 08:38:20;;;;;;;7.78;6.72;;;;;;;5.82;60.86;99076.47;5108343;28;20055;-72
2023/01/13 08:40:47;;;;;;;11.90;7.22;;;;;;;5.83;60.88;99068.50;5108406;28;20036;-72
2023/01/13 08:43:15;;;;;;;11.63;7.47;;;;;;;5.78;60.89;99065.19;5107006;28;20299;-72
2023/01/13 08:45:42;;;;;;;11.40;7.07;;;;;;;5.76;60.97;99056.53;5106675;28;20044;-72
2023/01/13 08:48:09;;;;;;;13.05;7.82;;;;;;;5.72;61.00;99053.16;5106730;28;20046;-72
2023/01/13 08:50:36;;;;;;;10.05;7.65;;;;;;;5.75;61.03;99055.66;5108047;28;20050;-72
2023/01/13 08:53:02;;;;;;;13.25;8.70;;;;;;;5.78;60.90;99050.28;5107033;28;20128;-72
2023/01/13 08:55:29;;;;;;;10.50;7.57;;;;;;;5.82;60.94;99051.00;5107670;28;20065;-72
2023/01/13 08:57:56;;;;;;;9.05;7.53;;;;;;;5.84;60.93;99058.84;5107253;28;20195;-72
2023/01/13 09:00:24;;;;;;;11.45;7.93;;;;;;;5.51;61.03;99004.06;5107451;28;20044;-72
2023/01/13 09:02:51;;;;;;;13.40;10.57;;;;;;;5.86;60.98;99052.59;5107611;28;20287;-72
2023/01/13 09:05:18;;;;;;;14.32;10.95;;;;;;;5.89;60.93;99054.25;5107001;28;20102;-72
2023/01/13 09:07:45;;;;;;;12.95;8.50;;;;;;;5.88;60.98;99055.16;5106244;28;20054;-72
2023/01/13 09:10:12;;;;;;;8.73;6.47;;;;;;;5.88;61.02;99049.91;5107006;28;20036;-72
2023/01/13 09:15:24;;;;;;;9.18;6.88;;;;;;;5.88;61.00;99057.78;5106728;28;20036;-72
2023/01/13 09:17:51;;;;;;;12.82;7.47;;;;;;;5.94;60.93;99054.91;5107499;28;20040;-72
2023/01/13 09:20:18;;;;;;;10.88;6.65;;;;;;;5.98;60.77;99046.84;5106717;28;20058;-72
2023/01/13 09:22:45;;;;;;;9.65;7.32;;;;;;;6.03;60.72;99057.16;5105888;28;20109;-71
2023/01/13 09:25:12;;;;;;;10.48;7.38;;;;;;;5.02;60.67;98900.94;5106894;28;20073;-72
2023/01/13 09:27:39;;;;;;;9.55;7.80;;;;;;;6.04;60.73;99046.59;5107395;28;20043;-72
2023/01/13 09:30:07;;;;;;;9.20;6.32;;;;;;;5.48;60.61;98962.13;5107068;28;20044;-72
2023/01/13 09:32:37;;;;;;;8.90;6.60;;;;;;;6.08;60.76;99047.31;5106346;28;20040;-72
2023/01/13 09:35:03;;;;;;;8.93;6.95;;;;;;;6.08;60.76;99050.78;5107289;28;20044;-72
2023/01/13 09:37:32;;;;;;;10.93;8.23;;;;;;;6.10;60.86;99045.47;5105771;28;20122;-72
2023/01/13 09:40:00;;;;;;;12.02;8.20;;;;;;;6.09;60.85;99041.13;5106835;28;20036;-72
2023/01/13 09:45:23;;;;;;;;;;;;;;;6.04;62.02;99038.69;5106788;28;20376;-72
2023/01/13 09:47:56;;;;;;;9.00;7.38;;;;;;;5.84;61.30;98986.06;5105622;28;19916;-71
2023/01/13 09:50:38;;;;;;;11.25;7.55;;;;;;;5.93;61.44;98993.56;5106955;28;20067;-71
2023/01/13 09:53:10;;;;;;;11.30;8.50;;;;;;;6.19;60.96;99025.81;5105441;28;20042;-72
2023/01/13 09:55:36;;;;;;;9.95;8.25;;;;;;;6.24;60.96;99018.56;5106475;28;20099;-72
2023/01/13 09:58:15;;;;;;;10.48;7.80;;;;;;;6.27;61.40;99013.19;5106414;28;20054;-72
2023/01/13 10:00:47;;;;;;;12.07;8.25;;;;;;;6.29;61.03;99017.44;5106789;28;20051;-71
2023/01/13 10:03:23;;;;;;;12.43;8.32;;;;;;;6.33;61.13;99011.13;5106730;28;20032;-71
2023/01/13 10:05:58;;;;;;;10.88;7.95;;;;;;;6.30;60.95;99013.03;5106127;28;20123;-72
2023/01/13 10:08:28;;;;;;;10.45;8.00;;;;;;;6.27;60.93;99010.53;5105200;28;20040;-72
2023/01/13 10:10:57;;;;;;;14.45;8.50;;;;;;;6.27;61.02;99037.72;5105973;28;20044;-72
2023/01/13 10:13:25;;;;;;;10.35;8.35;;;;;;;6.26;61.18;99008.84;5106239;28;20048;-72
2023/01/13 10:15:59;;;;;;;10.15;9.07;;;;;;;6.22;61.85;99005.47;5105940;28;20047;-72
2023/01/13 10:18:32;;;;;;;11.77;8.50;;;;;;;6.20;61.65;99009.94;5105104;28;20287;-72
2023/01/13 10:21:08;;;;;;;14.63;8.43;;;;;;;6.21;61.77;99014.28;5105772;28;20321;-72
2023/01/13 10:23:50;;;;;;;13.70;10.02;;;;;;;6.25;62.49;99015.03;5106004;28;20323;-72
2023/01/13 10:26:33;;;;;;;12.68;9.82;;;;;;;6.20;62.43;99004.69;5106004;28;20040;-72
2023/01/13 10:28:59;;;;;;;12.75;9.65;;;;;;;6.21;62.08;99002.91;5106412;28;20171;-71
2023/01/13 10:31:26;;;;;;;13.60;9.70;;;;;;;6.22;62.14;99002.84;5105979;28;20040;-72
2023/01/13 10:34:00;;;;;;;10.43;9.20;;;;;;;5.91;62.77;98949.84;5106173;28;20036;-72
2023/01/13 10:36:27;;;;;;;12.13;9.25;;;;;;;6.30;62.25;98994.63;5105779;28;20051;-72
2023/01/13 10:39:07;;;;;;;12.70;9.95;;;;;;;6.13;62.68;98953.25;5106049;28;20054;-72
2023/01/13 10:41:35;;;;;;;13.63;9.73;;;;;;;6.40;62.19;98977.50;5104678;28;20050;-72
2023/01/13 10:44:04;;;;;;;12.30;9.43;;;;;;;6.48;62.12;98978.03;5105558;28;20198;-72
2023/01/13 10:46:34;;;;;;;14.60;10.70;;;;;;;6.58;62.07;98968.78;5105378;28;20050;-72
2023/01/13 10:49:03;;;;;;;14.93;10.07;;;;;;;6.68;61.88;98971.84;5105495;28;20048;-71
2023/01/13 10:51:43;;;;;;;12.32;9.50;;;;;;;6.74;62.14;98975.06;5106038;28;20032;-72
2023/01/13 10:54:19;;;;;;;14.05;9.70;;;;;;;6.77;61.73;98963.53;5105632;28;20044;-72
2023/01/13 10:56:46;;;;;;;14.98;9.27;;;;;;;6.80;61.16;98958.16;5104669;28;20042;-72
2023/01/13 10:59:17;;;;;;;12.40;8.98;;;;;;;6.82;60.98;98950.19;5105038;28;20044;-72
2023/01/13 11:01:57;;;;;;;14.25;9.27;;;;;;;6.84;61.21;98935.16;5105731;28;20032;-72
2023/01/13 11:04:30;;;;;;;13.88;9.13;;;;;;;6.87;61.02;98930.59;5104480;28;20073;-72
2023/01/13 11:06:57;;;;;;;11.93;8.60;;;;;;;6.92;60.77;98925.13;5104521;28;20199;-72
2023/01/13 11:09:26;;;;;;;12.68;9.75;;;;;;;6.99;60.85;98923.91;5105205;28;20082;-72
2023/01/13 11:11:55;;;;;;;10.50;8.75;;;;;;;7.04;60.64;98932.44;5104423;28;20051;-72
2023/01/13 11:14:38;;;;;;;10.07;7.38;;;;;;;7.09;60.66;98929.59;5105825;28;20032;-72
2023/01/13 11:17:28;;;;;;;12.73;9.80;;;;;;;7.13;60.82;98913.56;5105572;28;20098;-72
2023/01/13 11:20:03;;;;;;;15.00;9.90;;;;;;;7.16;60.60;98913.41;5096414;28;20076;-72
2023/01/13 11:22:33;;;;;;;;;;;;;;;7.19;61.10;98921.19;5104425;28;20047;-72
2023/01/13 11:25:02;;;;;;;12.15;8.82;;;;;;;6.23;60.25;98949.28;5104744;28;19922;-72
2023/01/13 11:27:40;;;;;;;10.20;8.68;;;;;;;7.31;60.38;98927.63;5104729;28;20107;-72
2023/01/13 11:30:22;;;;;;;12.00;9.13;;;;;;;7.35;60.33;98919.53;5104105;28;20334;-72
2023/01/13 11:33:03;;;;;;;11.02;9.68;;;;;;;7.40;60.29;98919.31;5105547;28;20171;-72
2023/01/13 11:35:35;;;;;;;10.23;8.88;;;;;;;7.43;60.49;98905.97;5109551;28;20107;-72
2023/01/13 11:38:14;;;;;;;11.15;8.63;;;;;;;7.51;60.48;98909.09;5109124;28;20044;-71
2023/01/13 11:40:45;;;;;;;12.35;9.23;;;;;;;7.53;60.11;98903.72;5108714;28;20196;-71
2023/01/13 11:43:20;;;;;;;12.07;9.40;;;;;;;7.57;59.90;98902.66;5109350;28;20036;-73
2023/01/13 11:45:49;;;;;;;;;;;;;;;7.54;60.18;98908.94;5108139;28;20321;-72
2023/01/13 11:48:19;;;;;;;9.15;7.95;;;;;;;7.58;59.76;98907.84;5107976;28;20011;-71
2023/01/13 11:50:55;;;;;;;13.68;9.55;;;;;;;7.63;59.83;98902.34;5108601;28;20312;-71
2023/01/13 11:53:40;;;;;;;14.13;8.60;;;;;;;7.70;59.99;98895.81;5108804;28;20130;-71
2023/01/13 11:56:23;;;;;;;10.48;8.63;;;;;;;7.77;59.93;98904.28;5107848;28;20288;-71
2023/01/13 11:59:07;;;;;;;11.23;9.13;;;;;;;7.82;59.77;98899.63;5108441;28;20062;-71
2023/01/13 12:01:50;;;;;;;11.30;8.38;;;;;;;7.86;59.41;98904.66;5108745;28;20044;-71
2023/01/13 12:04:26;;;;;;;10.38;8.00;;;;;;;7.89;59.30;98901.88;5108360;28;20054;-71
2023/01/13 12:07:11;;;;;;;10.57;7.88;;;;;;;7.93;59.08;98898.16;5108437;28;20040;-71
2023/01/13 12:09:53;;;;;;;16.55;9.50;;;;;;;7.96;58.91;98889.22;5107458;28;20325;-71
2023/01/13 12:12:32;;;;;;;11.55;8.20;;;;;;;8.01;58.87;98895.97;5108536;28;20051;-70
2023/01/13 12:15:31;;;;;;;11.02;7.38;;;;;;;7.91;58.70;98868.34;5108805;28;20064;-71
2023/01/13 12:18:30;;;;;;;12.25;8.13;;;;;;;8.13;58.73;98883.06;5101875;28;20047;-71
2023/01/13 12:21:15;;;;;;;11.25;7.63;;;;;;;6.89;58.74;98677.66;5108343;28;20055;-71
2023/01/13 12:23:50;;;;;;;9.30;7.63;;;;;;;8.21;58.65;98880.88;5107147;28;20054;-72
2023/01/13 12:26:17;;;;;;;10.32;8.18;;;;;;;8.27;58.86;98899.03;5106329;28;20106;-71
2023/01/13 12:28:49;;;;;;;9.43;7.13;;;;;;;8.37;58.50;98881.75;5108024;28;20056;-71
2023/01/13 12:31:17;;;;;;;9.52;8.48;;;;;;;8.44;58.40;98879.63;5108162;28;20063;-71
2023/01/13 12:33:55;;;;;;;10.23;7.30;;;;;;;8.51;57.55;98875.72;5107736;28;20115;-71
2023/01/13 12:36:29;;;;;;;9.52;8.50;;;;;;;8.56;57.65;98882.47;5106808;28;20294;-71